Aeroporto :







RITROVATECI SU...

 
LOGIN :

Iscrizione | Disclaimer

   EN    FR    IT 

 









Sommario :    VFR   VFR Marginale   IFR   IFR Intensivo   IFR Molto Intensivo
Visibilità : 
Base nubi : 
>= 8 km
>= 3000ft
5 / 8 km
1000 / 3000 ft
1500m / 5 km
500 / 1000 ft
800 / 1500m
200 / 500 ft
< 800m
< 200 ft
Simboli :   Temporali  Nebbia  Neve Forte  Precipitazioni Forti  Vento > 20 kt






- Altitudine del aeroporto : 107 ft


KBVY - Beverly Municipal

ULTIMO METAR :
  • 251039Z AUTO 01004KT 2 1/2SM -RA BR OVC004 16/16 A3033 RMK AO2 RAE03B23 P0001 T01610156

METARs OBSOLETI :
  • 251028Z AUTO 36004KT 1 3/4SM -RA BR OVC004 16/16 A3033 RMK AO2 RAE03B23 P0001 T01610156
  • 251015Z AUTO 01004KT 2SM BR OVC004 16/16 A3033 RMK AO2 RAE03 P0001 T01610156
  • 251007Z AUTO 02004KT 3SM BR OVC004 16/15 A3033 RMK AO2 RAE03 P0000 T01610150
  • 250957Z AUTO 06004KT 2SM -RA BR OVC004 16/15 A3033 RMK AO2 P0000 T01610150
  • 250953Z AUTO 06003KT 1 1/2SM -RA BR OVC005 16/15 A3033 RMK AO2 RAB12 SLP265 P0001 T01560150
  • 250905Z AUTO 08005KT 4SM BR BKN006 OVC017 16/15 A3033 RMK AO2 T01560150
  • 250853Z AUTO 09004KT 4SM BR FEW007 OVC017 16/14 A3033 RMK AO2 SLP266 60001 T01560144 56015
  • 250826Z AUTO 10006KT 8SM SCT021 OVC029 16/14 A3033 RMK AO2 T01560144
  • 250814Z AUTO 10006KT 6SM BR FEW005 FEW023 OVC031 16/14 A3033 RMK AO2 T01560144
  • 250753Z AUTO 11005KT 9SM OVC032 16/14 A3033 RMK AO2 SLP265 T01560144

TAF N/A
FIR KZBW / America del Nord



MetMap, La meteo Aeronautica in un colpo d'occhio ! - Copyright ORBIFLY Dicembre 2007 - Disclaimer

ORBIFLY MET'MAP TEAM :

Programmazione e sviluppo : Alexandra Zaïnal
Concezione : Baudouin d'Aumeries
Aiuto per la programmazione : Marc-Olivier Méhu
Supporto tecnico e logistico : Manuel Goepfert
Aiuto per la traduzione : Arnaldo La Scala

Contatto : metmap@orbifly.com




FONTI E CREDITI :

   NOAA